Main page
METAR-TAF:

METAR-TAF

Airports :

Mandalay International Airport

Mandalay, Myanmar

latitude: 21-59N, longitude: 096-06E, elevation: 74 m

Current weather observation

The report was made 1 hour and 14 minutes ago, at 00:30 UTC
Wind 3 kt from the Northwest
Temperature 11°C
Humidity 87%
Pressure 1015 hPa
Visibility: 4000 m
Few clouds at a height of 2000 ft
mist

METAR: VYMD 120030Z 31003KT 4000 BR FEW020 11/09 Q1015

Time: 08:14 (01:44 UTC)

Forecast

The report was made 2 hours and 44 minutes ago, at 23:00 UTC
Forecast valid from 12 at 00 UTC to 12 at 24 UTC
Wind 5 kt from the Northwest
Visibility: 6000 m
Few clouds at a height of 2000 ft
Becoming
from 12 at 00 UTC to 12 at 02 UTC
Wind 3 kt from the North
Visibility: 4000 m
mist
Temporary
from 12 at 02 UTC to 12 at 06 UTC
Wind 3 kt from the Northwest
Visibility: 6000 m
Few clouds at a height of 2000 ft

TAF: VYMD 112300Z 1200/1224 32005KT 6000 FEW020 BECMG 1200/1202 36003KT 4000 BR TEMPO 1202/1206 32003KT 6000 FEW020

Weather observations and forecasts of more than 4000 airports (METAR and TAF reports).

The available stations are represented by yellow and red dots on the map.

Hover mouse over dot to see the name of the station.

Then click to see weather observations and forecasts.

To change the map : click on the green buttons with a black cross to zoom in, on the green button with a dash to zoom out, or on the green arrows for adjacent maps.


METAR-TAF: